Catheys Valley, California
Current Conditions -  °F | °C
As of 12:00 AM on Monday 26 Jan 2015 (Local Time) from KMCE Reporting Station
Haze Haze  
Wind Chill: 36°   Ceiling: Unl
Heat Index: 36°   Visibility: 2.5mi
Dew Point: 35°   Wind: 3mph
Humidity: 97%   Direction: 120°ESE
Pressure: 30.1"   Gusts: NA
Location:  37.41°N, 120.1°W
Report Text: KMCE 260800Z AUTO 12003KT 2 1/2SM BR CLR 02/02 A3010 RMK AO2 T00220017 $
Loading
Personal Weather Stations






























Interactive Weather Map New forecast layout! Learn more

10-Day Weather Forecast

Advertisements
Track Severe Weather on mobile